sensor_id;sensor_type;location;lat;lon;timestamp;pressure;altitude;pressure_sealevel;temperature;humidity
7990;BME280;4040;42.848;23.034;2024-01-06T00:01:17;94724.81;;;4.58;100.00
7990;BME280;4040;42.848;23.034;2024-01-06T00:03:45;94728.25;;;4.62;100.00
7990;BME280;4040;42.848;23.034;2024-01-06T00:06:13;94718.91;;;4.42;100.00
7990;BME280;4040;42.848;23.034;2024-01-06T00:08:40;94706.94;;;4.29;100.00
7990;BME280;4040;42.848;23.034;2024-01-06T00:11:08;94729.13;;;4.36;100.00
7990;BME280;4040;42.848;23.034;2024-01-06T00:13:38;94735.53;;;4.32;100.00
7990;BME280;4040;42.848;23.034;2024-01-06T00:16:05;94714.78;;;4.15;100.00
7990;BME280;4040;42.848;23.034;2024-01-06T00:18:33;94734.00;;;4.31;100.00
7990;BME280;4040;42.848;23.034;2024-01-06T00:21:00;94723.75;;;4.33;100.00
7990;BME280;4040;42.848;23.034;2024-01-06T00:23:28;94738.63;;;4.34;100.00
7990;BME280;4040;42.848;23.034;2024-01-06T00:25:56;94697.06;;;4.00;100.00
7990;BME280;4040;42.848;23.034;2024-01-06T00:28:23;94722.22;;;4.32;100.00
7990;BME280;4040;42.848;23.034;2024-01-06T00:30:52;94727.22;;;4.37;100.00
7990;BME280;4040;42.848;23.034;2024-01-06T00:33:20;94708.22;;;4.09;100.00
7990;BME280;4040;42.848;23.034;2024-01-06T00:35:48;94735.81;;;4.23;100.00
7990;BME280;4040;42.848;23.034;2024-01-06T00:38:15;94704.78;;;3.79;100.00
7990;BME280;4040;42.848;23.034;2024-01-06T00:40:43;94734.88;;;4.09;100.00
7990;BME280;4040;42.848;23.034;2024-01-06T00:43:10;94732.53;;;4.04;100.00
7990;BME280;4040;42.848;23.034;2024-01-06T00:45:38;94694.34;;;3.93;100.00
7990;BME280;4040;42.848;23.034;2024-01-06T00:48:07;94681.28;;;3.84;100.00
7990;BME280;4040;42.848;23.034;2024-01-06T00:50:34;94700.88;;;3.99;100.00
7990;BME280;4040;42.848;23.034;2024-01-06T00:53:02;94698.59;;;4.01;100.00
7990;BME280;4040;42.848;23.034;2024-01-06T00:55:29;94719.72;;;4.13;100.00
7990;BME280;4040;42.848;23.034;2024-01-06T00:57:57;94725.00;;;4.09;100.00
7990;BME280;4040;42.848;23.034;2024-01-06T01:00:24;94715.50;;;4.12;100.00
7990;BME280;4040;42.848;23.034;2024-01-06T01:02:52;94680.59;;;3.91;100.00
7990;BME280;4040;42.848;23.034;2024-01-06T01:05:21;94684.56;;;4.04;100.00
7990;BME280;4040;42.848;23.034;2024-01-06T01:07:49;94676.63;;;3.78;100.00
7990;BME280;4040;42.848;23.034;2024-01-06T01:10:16;94682.81;;;3.85;100.00
7990;BME280;4040;42.848;23.034;2024-01-06T01:12:44;94689.69;;;3.86;100.00
7990;BME280;4040;42.848;23.034;2024-01-06T01:15:11;94699.66;;;3.93;100.00
7990;BME280;4040;42.848;23.034;2024-01-06T01:17:39;94699.56;;;3.86;100.00
7990;BME280;4040;42.848;23.034;2024-01-06T01:20:07;94696.78;;;3.79;100.00
7990;BME280;4040;42.848;23.034;2024-01-06T01:22:36;94687.38;;;3.85;100.00
7990;BME280;4040;42.848;23.034;2024-01-06T01:25:04;94686.41;;;4.00;100.00
7990;BME280;4040;42.848;23.034;2024-01-06T01:27:33;94693.66;;;3.99;100.00
7990;BME280;4040;42.848;23.034;2024-01-06T01:30:00;94684.38;;;3.86;100.00
7990;BME280;4040;42.848;23.034;2024-01-06T01:32:28;94638.44;;;3.67;100.00
7990;BME280;4040;42.848;23.034;2024-01-06T01:34:55;94673.91;;;4.04;100.00
7990;BME280;4040;42.848;23.034;2024-01-06T01:37:23;94674.63;;;4.01;100.00
7990;BME280;4040;42.848;23.034;2024-01-06T01:39:52;94676.66;;;4.11;100.00
7990;BME280;4040;42.848;23.034;2024-01-06T01:42:19;94660.16;;;3.98;100.00
7990;BME280;4040;42.848;23.034;2024-01-06T01:44:47;94669.44;;;4.11;100.00
7990;BME280;4040;42.848;23.034;2024-01-06T01:47:14;94645.25;;;3.94;100.00
7990;BME280;4040;42.848;23.034;2024-01-06T01:49:45;94667.69;;;3.93;100.00
7990;BME280;4040;42.848;23.034;2024-01-06T01:52:13;94655.38;;;3.81;100.00
7990;BME280;4040;42.848;23.034;2024-01-06T01:54:42;94647.56;;;3.66;100.00
7990;BME280;4040;42.848;23.034;2024-01-06T01:57:13;94689.31;;;3.88;100.00
7990;BME280;4040;42.848;23.034;2024-01-06T01:59:41;94676.63;;;3.78;100.00
7990;BME280;4040;42.848;23.034;2024-01-06T02:02:09;94675.41;;;3.72;100.00
7990;BME280;4040;42.848;23.034;2024-01-06T02:04:36;94678.75;;;3.65;100.00
7990;BME280;4040;42.848;23.034;2024-01-06T02:07:04;94668.72;;;3.55;100.00
7990;BME280;4040;42.848;23.034;2024-01-06T02:09:32;94654.34;;;3.60;100.00
7990;BME280;4040;42.848;23.034;2024-01-06T02:11:59;94643.63;;;3.56;100.00
7990;BME280;4040;42.848;23.034;2024-01-06T02:14:28;94643.47;;;3.72;100.00
7990;BME280;4040;42.848;23.034;2024-01-06T02:16:55;94642.41;;;3.80;100.00
7990;BME280;4040;42.848;23.034;2024-01-06T02:19:23;94639.34;;;3.78;100.00
7990;BME280;4040;42.848;23.034;2024-01-06T02:21:53;94624.78;;;3.68;100.00
7990;BME280;4040;42.848;23.034;2024-01-06T02:24:20;94592.63;;;3.54;100.00
7990;BME280;4040;42.848;23.034;2024-01-06T02:26:48;94615.31;;;3.74;100.00
7990;BME280;4040;42.848;23.034;2024-01-06T02:29:16;94578.56;;;3.54;100.00
7990;BME280;4040;42.848;23.034;2024-01-06T02:31:43;94611.53;;;3.75;100.00
7990;BME280;4040;42.848;23.034;2024-01-06T02:34:11;94592.88;;;3.72;100.00
7990;BME280;4040;42.848;23.034;2024-01-06T02:36:38;94612.88;;;3.92;100.00
7990;BME280;4040;42.848;23.034;2024-01-06T02:39:07;94612.47;;;3.90;100.00
7990;BME280;4040;42.848;23.034;2024-01-06T02:41:35;94591.47;;;3.85;100.00
7990;BME280;4040;42.848;23.034;2024-01-06T02:44:03;94578.41;;;3.73;100.00
7990;BME280;4040;42.848;23.034;2024-01-06T02:46:30;94607.56;;;3.92;100.00
7990;BME280;4040;42.848;23.034;2024-01-06T02:48:58;94601.28;;;3.77;100.00
7990;BME280;4040;42.848;23.034;2024-01-06T02:51:25;94601.41;;;3.88;100.00
7990;BME280;4040;42.848;23.034;2024-01-06T02:53:53;94569.53;;;3.62;100.00
7990;BME280;4040;42.848;23.034;2024-01-06T02:56:22;94595.28;;;3.84;100.00
7990;BME280;4040;42.848;23.034;2024-01-06T02:58:49;94590.69;;;3.81;100.00
7990;BME280;4040;42.848;23.034;2024-01-06T03:01:17;94590.75;;;3.88;100.00
7990;BME280;4040;42.848;23.034;2024-01-06T03:03:45;94596.00;;;3.81;100.00
7990;BME280;4040;42.848;23.034;2024-01-06T03:06:12;94589.13;;;3.80;100.00
7990;BME280;4040;42.848;23.034;2024-01-06T03:08:40;94585.66;;;3.76;100.00
7990;BME280;4040;42.848;23.034;2024-01-06T03:11:07;94579.94;;;3.74;100.00
7990;BME280;4040;42.848;23.034;2024-01-06T03:13:36;94581.53;;;3.78;100.00
7990;BME280;4040;42.848;23.034;2024-01-06T03:16:04;94587.59;;;3.79;100.00
7990;BME280;4040;42.848;23.034;2024-01-06T03:18:32;94576.88;;;3.72;100.00
7990;BME280;4040;42.848;23.034;2024-01-06T03:20:59;94579.44;;;3.65;100.00
7990;BME280;4040;42.848;23.034;2024-01-06T03:23:27;94577.53;;;3.62;100.00
7990;BME280;4040;42.848;23.034;2024-01-06T03:25:54;94545.38;;;3.44;100.00
7990;BME280;4040;42.848;23.034;2024-01-06T03:28:22;94569.03;;;3.53;100.00
7990;BME280;4040;42.848;23.034;2024-01-06T03:30:51;94558.69;;;3.48;100.00
7990;BME280;4040;42.848;23.034;2024-01-06T03:33:18;94527.09;;;3.43;100.00
7990;BME280;4040;42.848;23.034;2024-01-06T03:35:46;94554.69;;;3.61;100.00
7990;BME280;4040;42.848;23.034;2024-01-06T03:38:13;94556.81;;;3.48;100.00
7990;BME280;4040;42.848;23.034;2024-01-06T03:40:41;94562.09;;;3.45;100.00
7990;BME280;4040;42.848;23.034;2024-01-06T03:43:08;94565.84;;;3.40;100.00
7990;BME280;4040;42.848;23.034;2024-01-06T03:45:35;94545.94;;;3.31;100.00
7990;BME280;4040;42.848;23.034;2024-01-06T03:48:05;94552.53;;;3.40;100.00
7990;BME280;4040;42.848;23.034;2024-01-06T03:50:33;94551.34;;;3.38;100.00
7990;BME280;4040;42.848;23.034;2024-01-06T03:53:00;94543.00;;;3.39;100.00
7990;BME280;4040;42.848;23.034;2024-01-06T03:55:28;94546.03;;;3.38;100.00
7990;BME280;4040;42.848;23.034;2024-01-06T03:57:55;94548.28;;;3.36;100.00
7990;BME280;4040;42.848;23.034;2024-01-06T04:00:25;94540.59;;;3.27;100.00
7990;BME280;4040;42.848;23.034;2024-01-06T04:02:52;94542.66;;;3.41;100.00
7990;BME280;4040;42.848;23.034;2024-01-06T04:05:21;94552.97;;;3.46;100.00
7990;BME280;4040;42.848;23.034;2024-01-06T04:07:48;94558.34;;;3.49;100.00
7990;BME280;4040;42.848;23.034;2024-01-06T04:10:16;94565.56;;;3.49;100.00
7990;BME280;4040;42.848;23.034;2024-01-06T04:12:43;94549.56;;;3.49;100.00
7990;BME280;4040;42.848;23.034;2024-01-06T04:15:11;94558.00;;;3.51;100.00
7990;BME280;4040;42.848;23.034;2024-01-06T04:17:38;94489.41;;;3.08;100.00
7990;BME280;4040;42.848;23.034;2024-01-06T04:20:06;94556.13;;;3.55;100.00
7990;BME280;4040;42.848;23.034;2024-01-06T04:22:35;94557.56;;;3.49;100.00
7990;BME280;4040;42.848;23.034;2024-01-06T04:25:03;94567.50;;;3.52;100.00
7990;BME280;4040;42.848;23.034;2024-01-06T04:27:31;94581.06;;;3.40;100.00
7990;BME280;4040;42.848;23.034;2024-01-06T04:29:59;94581.50;;;3.45;100.00
7990;BME280;4040;42.848;23.034;2024-01-06T04:32:27;94582.66;;;3.48;100.00
7990;BME280;4040;42.848;23.034;2024-01-06T04:34:55;94585.50;;;3.32;100.00
7990;BME280;4040;42.848;23.034;2024-01-06T04:37:23;94570.88;;;3.19;100.00
7990;BME280;4040;42.848;23.034;2024-01-06T04:39:52;94580.84;;;3.26;100.00
7990;BME280;4040;42.848;23.034;2024-01-06T04:42:19;94567.47;;;3.19;100.00
7990;BME280;4040;42.848;23.034;2024-01-06T04:44:48;94573.38;;;3.35;100.00
7990;BME280;4040;42.848;23.034;2024-01-06T04:47:15;94558.44;;;3.27;100.00
7990;BME280;4040;42.848;23.034;2024-01-06T04:49:43;94559.63;;;3.29;100.00
7990;BME280;4040;42.848;23.034;2024-01-06T04:52:11;94560.38;;;3.30;100.00
7990;BME280;4040;42.848;23.034;2024-01-06T04:54:38;94555.69;;;3.20;100.00
7990;BME280;4040;42.848;23.034;2024-01-06T04:57:07;94539.00;;;3.23;100.00
7990;BME280;4040;42.848;23.034;2024-01-06T04:59:35;94551.28;;;3.31;100.00
7990;BME280;4040;42.848;23.034;2024-01-06T05:02:02;94549.00;;;3.33;100.00
7990;BME280;4040;42.848;23.034;2024-01-06T05:04:30;94549.00;;;3.33;100.00
7990;BME280;4040;42.848;23.034;2024-01-06T05:06:58;94536.22;;;3.42;100.00
7990;BME280;4040;42.848;23.034;2024-01-06T05:09:26;94539.16;;;3.37;100.00
7990;BME280;4040;42.848;23.034;2024-01-06T05:11:53;94534.56;;;3.34;100.00
7990;BME280;4040;42.848;23.034;2024-01-06T05:14:22;94525.41;;;3.31;100.00
7990;BME280;4040;42.848;23.034;2024-01-06T05:16:50;94535.72;;;3.33;100.00
7990;BME280;4040;42.848;23.034;2024-01-06T05:19:17;94527.00;;;3.36;100.00
7990;BME280;4040;42.848;23.034;2024-01-06T05:21:47;94508.03;;;3.08;100.00
7990;BME280;4040;42.848;23.034;2024-01-06T05:24:15;94448.59;;;2.67;100.00
7990;BME280;4040;42.848;23.034;2024-01-06T05:26:42;94536.06;;;3.02;100.00
7990;BME280;4040;42.848;23.034;2024-01-06T05:29:10;94533.34;;;2.98;100.00
7990;BME280;4040;42.848;23.034;2024-01-06T05:31:38;94536.28;;;2.90;100.00
7990;BME280;4040;42.848;23.034;2024-01-06T05:34:06;94544.34;;;2.97;100.00
7990;BME280;4040;42.848;23.034;2024-01-06T05:36:33;94529.72;;;2.84;100.00
7990;BME280;4040;42.848;23.034;2024-01-06T05:39:01;94527.97;;;2.95;100.00
7990;BME280;4040;42.848;23.034;2024-01-06T05:41:28;94508.84;;;2.86;100.00
7990;BME280;4040;42.848;23.034;2024-01-06T05:43:58;94513.66;;;3.03;100.00
7990;BME280;4040;42.848;23.034;2024-01-06T05:46:25;94521.22;;;3.01;100.00
7990;BME280;4040;42.848;23.034;2024-01-06T05:48:54;94516.63;;;2.98;100.00
7990;BME280;4040;42.848;23.034;2024-01-06T05:51:22;94516.59;;;2.94;100.00
7990;BME280;4040;42.848;23.034;2024-01-06T05:53:49;94522.44;;;3.07;100.00
7990;BME280;4040;42.848;23.034;2024-01-06T05:56:22;94529.03;;;3.16;100.00
7990;BME280;4040;42.848;23.034;2024-01-06T05:58:51;94541.06;;;3.07;100.00
7990;BME280;4040;42.848;23.034;2024-01-06T06:01:19;94476.56;;;2.58;100.00
7990;BME280;4040;42.848;23.034;2024-01-06T06:03:47;94502.78;;;2.59;100.00
7990;BME280;4040;42.848;23.034;2024-01-06T06:06:17;94520.09;;;2.76;100.00
7990;BME280;4040;42.848;23.034;2024-01-06T06:08:46;94526.50;;;2.97;100.00
7990;BME280;4040;42.848;23.034;2024-01-06T06:11:14;94522.88;;;3.09;100.00
7990;BME280;4040;42.848;23.034;2024-01-06T06:13:42;94502.09;;;2.92;100.00
7990;BME280;4040;42.848;23.034;2024-01-06T06:16:10;94534.63;;;3.08;100.00
7990;BME280;4040;42.848;23.034;2024-01-06T06:18:38;94469.13;;;2.70;100.00
7990;BME280;4040;42.848;23.034;2024-01-06T06:21:06;94522.94;;;3.16;100.00
7990;BME280;4040;42.848;23.034;2024-01-06T06:23:35;94494.06;;;3.14;100.00
7990;BME280;4040;42.848;23.034;2024-01-06T06:26:05;94482.53;;;3.07;100.00
7990;BME280;4040;42.848;23.034;2024-01-06T06:28:32;94485.38;;;3.21;100.00
7990;BME280;4040;42.848;23.034;2024-01-06T06:31:01;94494.66;;;3.34;100.00
7990;BME280;4040;42.848;23.034;2024-01-06T06:33:29;94500.38;;;3.36;100.00
7990;BME280;4040;42.848;23.034;2024-01-06T06:35:56;94527.25;;;3.57;100.00
7990;BME280;4040;42.848;23.034;2024-01-06T06:38:25;94536.44;;;3.63;100.00
7990;BME280;4040;42.848;23.034;2024-01-06T06:40:54;94538.13;;;3.78;100.00
7990;BME280;4040;42.848;23.034;2024-01-06T06:43:22;94518.28;;;3.72;100.00
7990;BME280;4040;42.848;23.034;2024-01-06T06:45:49;94538.06;;;3.71;100.00
7990;BME280;4040;42.848;23.034;2024-01-06T06:48:17;94519.50;;;3.45;100.00
7990;BME280;4040;42.848;23.034;2024-01-06T06:50:44;94538.06;;;3.71;100.00
7990;BME280;4040;42.848;23.034;2024-01-06T06:53:12;94493.03;;;3.59;100.00
7990;BME280;4040;42.848;23.034;2024-01-06T06:55:39;94546.06;;;4.11;100.00
7990;BME280;4040;42.848;23.034;2024-01-06T06:58:09;94553.13;;;4.33;100.00
7990;BME280;4040;42.848;23.034;2024-01-06T07:00:36;94551.22;;;4.77;100.00
7990;BME280;4040;42.848;23.034;2024-01-06T07:03:04;94514.13;;;4.58;100.00
7990;BME280;4040;42.848;23.034;2024-01-06T07:05:31;94564.34;;;5.02;100.00
7990;BME280;4040;42.848;23.034;2024-01-06T07:08:00;94566.84;;;5.35;100.00
7990;BME280;4040;42.848;23.034;2024-01-06T07:10:28;94581.53;;;5.76;100.00
7990;BME280;4040;42.848;23.034;2024-01-06T07:12:55;94573.72;;;6.25;100.00
7990;BME280;4040;42.848;23.034;2024-01-06T07:15:24;94582.56;;;6.99;100.00
7990;BME280;4040;42.848;23.034;2024-01-06T07:17:52;94543.50;;;7.37;100.00
7990;BME280;4040;42.848;23.034;2024-01-06T07:20:19;94536.91;;;7.55;100.00
7990;BME280;4040;42.848;23.034;2024-01-06T07:22:47;94580.81;;;7.96;100.00
7990;BME280;4040;42.848;23.034;2024-01-06T07:25:14;94581.50;;;8.14;100.00
7990;BME280;4040;42.848;23.034;2024-01-06T07:27:42;94572.91;;;8.47;100.00
7990;BME280;4040;42.848;23.034;2024-01-06T07:30:10;94475.84;;;8.01;100.00
7990;BME280;4040;42.848;23.034;2024-01-06T07:32:40;94573.78;;;9.32;100.00
7990;BME280;4040;42.848;23.034;2024-01-06T07:35:08;94567.09;;;10.73;100.00
7990;BME280;4040;42.848;23.034;2024-01-06T07:37:35;94561.19;;;11.74;100.00
7990;BME280;4040;42.848;23.034;2024-01-06T07:40:03;94561.28;;;12.45;100.00
7990;BME280;4040;42.848;23.034;2024-01-06T07:42:31;94550.31;;;13.19;90.49
7990;BME280;4040;42.848;23.034;2024-01-06T07:44:58;94552.94;;;13.38;83.52
7990;BME280;4040;42.848;23.034;2024-01-06T07:47:26;94558.78;;;13.21;81.11
7990;BME280;4040;42.848;23.034;2024-01-06T07:49:54;94553.97;;;12.96;80.58
7990;BME280;4040;42.848;23.034;2024-01-06T07:52:23;94555.66;;;13.06;81.11
7990;BME280;4040;42.848;23.034;2024-01-06T07:54:50;94550.31;;;13.51;77.72
7990;BME280;4040;42.848;23.034;2024-01-06T07:57:18;94554.56;;;14.75;72.23
7990;BME280;4040;42.848;23.034;2024-01-06T07:59:45;94551.84;;;15.37;68.13
7990;BME280;4040;42.848;23.034;2024-01-06T08:02:13;94551.97;;;16.44;63.31
7990;BME280;4040;42.848;23.034;2024-01-06T08:04:40;94546.56;;;17.23;57.08
7990;BME280;4040;42.848;23.034;2024-01-06T08:07:09;94545.34;;;17.15;55.43
7990;BME280;4040;42.848;23.034;2024-01-06T08:09:37;94552.41;;;16.64;54.64
7990;BME280;4040;42.848;23.034;2024-01-06T08:12:05;94553.97;;;15.42;57.00
7990;BME280;4040;42.848;23.034;2024-01-06T08:14:33;94552.56;;;15.50;57.83
7990;BME280;4040;42.848;23.034;2024-01-06T08:17:00;94550.31;;;15.11;59.73
7990;BME280;4040;42.848;23.034;2024-01-06T08:19:28;94557.09;;;15.65;58.06
7990;BME280;4040;42.848;23.034;2024-01-06T08:21:57;94561.06;;;15.39;57.78
7990;BME280;4040;42.848;23.034;2024-01-06T08:24:26;94559.97;;;14.50;60.07
7990;BME280;4040;42.848;23.034;2024-01-06T08:26:53;94564.47;;;13.99;63.15
7990;BME280;4040;42.848;23.034;2024-01-06T08:29:21;94561.94;;;13.64;64.99
7990;BME280;4040;42.848;23.034;2024-01-06T08:31:48;94564.91;;;13.53;66.39
7990;BME280;4040;42.848;23.034;2024-01-06T08:34:18;94555.25;;;13.68;67.42
7990;BME280;4040;42.848;23.034;2024-01-06T08:36:45;94553.97;;;13.73;67.42
7990;BME280;4040;42.848;23.034;2024-01-06T08:39:13;94552.28;;;13.18;67.28
7990;BME280;4040;42.848;23.034;2024-01-06T08:41:42;94545.22;;;12.73;71.84
7990;BME280;4040;42.848;23.034;2024-01-06T08:44:09;94526.94;;;11.90;75.88
7990;BME280;4040;42.848;23.034;2024-01-06T08:46:36;94544.16;;;11.57;84.29
7990;BME280;4040;42.848;23.034;2024-01-06T08:49:04;94549.34;;;11.45;88.11
7990;BME280;4040;42.848;23.034;2024-01-06T08:51:31;94541.91;;;11.29;91.41
7990;BME280;4040;42.848;23.034;2024-01-06T08:53:59;94540.75;;;11.53;93.74
7990;BME280;4040;42.848;23.034;2024-01-06T08:56:29;94534.69;;;11.46;93.96
7990;BME280;4040;42.848;23.034;2024-01-06T08:58:58;94533.66;;;11.82;93.07
7990;BME280;4040;42.848;23.034;2024-01-06T09:01:25;94540.22;;;12.71;87.09
7990;BME280;4040;42.848;23.034;2024-01-06T09:03:53;94526.69;;;14.37;72.94
7990;BME280;4040;42.848;23.034;2024-01-06T09:06:20;94524.97;;;14.68;66.46
7990;BME280;4040;42.848;23.034;2024-01-06T09:08:48;94510.78;;;15.81;63.77
7990;BME280;4040;42.848;23.034;2024-01-06T09:11:15;94499.06;;;18.68;55.67
7990;BME280;4040;42.848;23.034;2024-01-06T09:13:43;94495.84;;;20.05;48.04
7990;BME280;4040;42.848;23.034;2024-01-06T09:16:11;94485.16;;;21.22;43.33
7990;BME280;4040;42.848;23.034;2024-01-06T09:18:40;94492.28;;;20.28;43.81
7990;BME280;4040;42.848;23.034;2024-01-06T09:21:07;94489.50;;;19.99;43.93
7990;BME280;4040;42.848;23.034;2024-01-06T09:23:35;94488.28;;;19.62;46.32
7990;BME280;4040;42.848;23.034;2024-01-06T09:26:02;94488.38;;;18.88;46.09
7990;BME280;4040;42.848;23.034;2024-01-06T09:28:30;94494.50;;;17.03;50.08
7990;BME280;4040;42.848;23.034;2024-01-06T09:30:57;94483.47;;;15.85;55.24
7990;BME280;4040;42.848;23.034;2024-01-06T09:33:26;94464.31;;;15.45;57.54
7990;BME280;4040;42.848;23.034;2024-01-06T09:35:54;94480.88;;;15.14;59.37
7990;BME280;4040;42.848;23.034;2024-01-06T09:38:21;94490.34;;;14.22;63.13
7990;BME280;4040;42.848;23.034;2024-01-06T09:40:49;94488.91;;;13.19;68.46
7990;BME280;4040;42.848;23.034;2024-01-06T09:43:16;94464.66;;;12.52;78.03
7990;BME280;4040;42.848;23.034;2024-01-06T09:48:38;94456.66;;;11.39;90.28
7990;BME280;4040;42.848;23.034;2024-01-06T09:51:10;94459.00;;;10.71;99.72
7990;BME280;4040;42.848;23.034;2024-01-06T09:53:52;94449.81;;;10.19;100.00
7990;BME280;4040;42.848;23.034;2024-01-06T09:56:25;94445.50;;;9.95;100.00
7990;BME280;4040;42.848;23.034;2024-01-06T09:58:53;94440.25;;;9.89;100.00
7990;BME280;4040;42.848;23.034;2024-01-06T10:01:20;94440.84;;;9.99;100.00
7990;BME280;4040;42.848;23.034;2024-01-06T10:03:50;94440.84;;;9.99;100.00
7990;BME280;4040;42.848;23.034;2024-01-06T10:06:18;94429.56;;;9.82;100.00
7990;BME280;4040;42.848;23.034;2024-01-06T10:08:49;94423.75;;;9.57;100.00
7990;BME280;4040;42.848;23.034;2024-01-06T10:11:17;94427.25;;;9.54;100.00
7990;BME280;4040;42.848;23.034;2024-01-06T10:13:44;94417.06;;;9.38;100.00
7990;BME280;4040;42.848;23.034;2024-01-06T10:16:11;94420.88;;;9.41;100.00
7990;BME280;4040;42.848;23.034;2024-01-06T10:18:39;94422.88;;;9.67;100.00
7990;BME280;4040;42.848;23.034;2024-01-06T10:21:08;94412.63;;;10.37;100.00
7990;BME280;4040;42.848;23.034;2024-01-06T10:23:36;94402.09;;;10.69;100.00
7990;BME280;4040;42.848;23.034;2024-01-06T10:26:04;94402.22;;;10.62;100.00
7990;BME280;4040;42.848;23.034;2024-01-06T10:28:31;94354.94;;;10.38;100.00
7990;BME280;4040;42.848;23.034;2024-01-06T10:30:59;94396.72;;;10.69;100.00
7990;BME280;4040;42.848;23.034;2024-01-06T10:33:27;94392.59;;;10.84;100.00
7990;BME280;4040;42.848;23.034;2024-01-06T10:35:55;94379.97;;;11.01;100.00
7990;BME280;4040;42.848;23.034;2024-01-06T10:38:26;94385.19;;;10.88;100.00
7990;BME280;4040;42.848;23.034;2024-01-06T10:40:57;94386.63;;;10.73;100.00
7990;BME280;4040;42.848;23.034;2024-01-06T10:43:26;94381.38;;;10.66;100.00
7990;BME280;4040;42.848;23.034;2024-01-06T10:45:56;94380.78;;;10.55;100.00
7990;BME280;4040;42.848;23.034;2024-01-06T10:48:25;94368.59;;;10.47;100.00
7990;BME280;4040;42.848;23.034;2024-01-06T10:50:54;94368.16;;;10.29;100.00
7990;BME280;4040;42.848;23.034;2024-01-06T10:53:23;94355.28;;;10.17;100.00
7990;BME280;4040;42.848;23.034;2024-01-06T10:55:53;94339.38;;;10.00;100.00
7990;BME280;4040;42.848;23.034;2024-01-06T10:58:22;94345.69;;;9.90;100.00
7990;BME280;4040;42.848;23.034;2024-01-06T11:00:49;94339.13;;;9.65;100.00
7990;BME280;4040;42.848;23.034;2024-01-06T11:03:17;94347.06;;;9.49;100.00
7990;BME280;4040;42.848;23.034;2024-01-06T11:05:45;94341.06;;;9.38;100.00
7990;BME280;4040;42.848;23.034;2024-01-06T11:08:17;94348.16;;;9.25;100.00
7990;BME280;4040;42.848;23.034;2024-01-06T11:10:46;94352.75;;;9.24;100.00
7990;BME280;4040;42.848;23.034;2024-01-06T11:13:16;94335.91;;;9.24;100.00
7990;BME280;4040;42.848;23.034;2024-01-06T11:15:49;94331.94;;;9.32;100.00
7990;BME280;4040;42.848;23.034;2024-01-06T11:18:33;94330.13;;;9.52;100.00
7990;BME280;4040;42.848;23.034;2024-01-06T11:21:17;94342.59;;;9.39;100.00
7990;BME280;4040;42.848;23.034;2024-01-06T11:24:15;94321.19;;;9.32;100.00
7990;BME280;4040;42.848;23.034;2024-01-06T11:26:45;94315.38;;;9.37;100.00
7990;BME280;4040;42.848;23.034;2024-01-06T11:29:16;94316.25;;;9.57;100.00
7990;BME280;4040;42.848;23.034;2024-01-06T11:32:18;94311.59;;;9.84;100.00
7990;BME280;4040;42.848;23.034;2024-01-06T11:34:49;94280.41;;;10.12;100.00
7990;BME280;4040;42.848;23.034;2024-01-06T11:37:20;94260.38;;;10.36;100.00
7990;BME280;4040;42.848;23.034;2024-01-06T11:39:50;94260.56;;;10.26;100.00
7990;BME280;4040;42.848;23.034;2024-01-06T11:42:20;94282.22;;;10.19;100.00
7990;BME280;4040;42.848;23.034;2024-01-06T11:44:51;94276.19;;;10.11;100.00
7990;BME280;4040;42.848;23.034;2024-01-06T11:47:18;94278.66;;;10.02;100.00
7990;BME280;4040;42.848;23.034;2024-01-06T11:49:54;94274.19;;;9.93;100.00
7990;BME280;4040;42.848;23.034;2024-01-06T11:52:23;94279.44;;;9.99;100.00
7990;BME280;4040;42.848;23.034;2024-01-06T11:54:52;94280.19;;;10.00;100.00
7990;BME280;4040;42.848;23.034;2024-01-06T11:57:22;94290.13;;;10.07;100.00
7990;BME280;4040;42.848;23.034;2024-01-06T11:59:51;94274.56;;;10.17;100.00
7990;BME280;4040;42.848;23.034;2024-01-06T12:02:18;94245.44;;;10.12;100.00
7990;BME280;4040;42.848;23.034;2024-01-06T12:04:49;94264.50;;;10.21;100.00
7990;BME280;4040;42.848;23.034;2024-01-06T12:07:17;94266.13;;;10.15;100.00
7990;BME280;4040;42.848;23.034;2024-01-06T12:09:45;94259.78;;;10.25;100.00
7990;BME280;4040;42.848;23.034;2024-01-06T12:12:15;94251.28;;;10.69;100.00
7990;BME280;4040;42.848;23.034;2024-01-06T12:14:45;94244.63;;;10.93;100.00
7990;BME280;4040;42.848;23.034;2024-01-06T12:17:12;94241.16;;;11.12;100.00
7990;BME280;4040;42.848;23.034;2024-01-06T12:19:40;94231.38;;;11.02;100.00
7990;BME280;4040;42.848;23.034;2024-01-06T12:22:12;94221.84;;;10.78;100.00
7990;BME280;4040;42.848;23.034;2024-01-06T12:24:40;94223.84;;;10.94;100.00
7990;BME280;4040;42.848;23.034;2024-01-06T12:27:08;94231.50;;;10.95;100.00
7990;BME280;4040;42.848;23.034;2024-01-06T12:29:38;94233.88;;;10.93;100.00
7990;BME280;4040;42.848;23.034;2024-01-06T12:32:09;94240.38;;;10.76;100.00
7990;BME280;4040;42.848;23.034;2024-01-06T12:34:39;94231.75;;;10.85;100.00
7990;BME280;4040;42.848;23.034;2024-01-06T12:37:06;94217.31;;;10.75;100.00
7990;BME280;4040;42.848;23.034;2024-01-06T12:39:34;94234.00;;;10.86;100.00
7990;BME280;4040;42.848;23.034;2024-01-06T12:42:02;94224.75;;;10.87;100.00
7990;BME280;4040;42.848;23.034;2024-01-06T12:44:30;94225.06;;;10.89;100.00
7990;BME280;4040;42.848;23.034;2024-01-06T12:46:59;94217.19;;;10.98;100.00
7990;BME280;4040;42.848;23.034;2024-01-06T12:49:28;94217.94;;;11.34;100.00
7990;BME280;4040;42.848;23.034;2024-01-06T12:51:56;94215.25;;;11.50;100.00
7990;BME280;4040;42.848;23.034;2024-01-06T12:54:23;94212.06;;;11.55;100.00
7990;BME280;4040;42.848;23.034;2024-01-06T12:56:51;94219.84;;;11.69;100.00
7990;BME280;4040;42.848;23.034;2024-01-06T12:59:18;94211.41;;;11.67;100.00
7990;BME280;4040;42.848;23.034;2024-01-06T13:01:46;94216.06;;;11.31;100.00
7990;BME280;4040;42.848;23.034;2024-01-06T13:04:13;94223.38;;;11.15;100.00
7990;BME280;4040;42.848;23.034;2024-01-06T13:06:42;94219.75;;;11.05;100.00
7990;BME280;4040;42.848;23.034;2024-01-06T13:09:10;94206.00;;;11.00;100.00
7990;BME280;4040;42.848;23.034;2024-01-06T13:11:42;94211.13;;;10.94;100.00
7990;BME280;4040;42.848;23.034;2024-01-06T13:14:11;94209.13;;;10.98;100.00
7990;BME280;4040;42.848;23.034;2024-01-06T13:16:39;94208.97;;;11.05;100.00
7990;BME280;4040;42.848;23.034;2024-01-06T13:19:07;94202.72;;;11.08;100.00